Pied Piper — WDB8661 — position and weather

sailwx.info

Track history (hours):
 
Tides and Currents Weather Stations Pressure Air Temp Water Temp Dewpoint Dewpoint Depression Visibility Wind Speed Wind Dir Waves Ship Positions

Pied Piper

Owner: Cape & Islands Transport Inc., Falmouth, MA. More information available from US FCC via Universal Licensing System and Coast Guard Vessel Documentation Center.

Last reported at 2015-Aug-24 16:33 UTC. Time now 2015-Sep-02 21:54 UTC.
Position N 41°26' W 070°30'.
Warning: this ship's position is 9 days out of date.

Length 24 m; draft 2 m.

Type: Passenger vessel. MMSI: 366962380.

Date/timePositionNaut miles runAvg speedWind from/ knotsBaromVisibWave heightAir tempDewpointWater temp
2015-Aug-24 16:33N 41°26' W 070°30'8 0.5
2015-Aug-24 00:06N 41°33' W 070°36'915.1
2015-Aug-23 23:31N 41°26' W 070°29'9 3.7
2015-Aug-23 21:10N 41°33' W 070°36'813.7
2015-Aug-23 20:33N 41°26' W 070°30'5 3.9
2015-Aug-23 19:13N 41°30' W 070°34'2 2.2
2015-Aug-23 18:32N 41°31' W 070°35'9 7.0
2015-Aug-23 17:17N 41°24' W 070°30'10 9.6
2015-Aug-23 16:13N 41°33' W 070°36'812.9
2015-Aug-23 15:33N 41°26' W 070°29'8 0.2
2015-Aug-21 22:09N 41°32' W 070°36'  
2015-Aug-16 20:07N 41°23' W 070°31'10 2.4
2015-Aug-16 16:07N 41°32' W 070°36'813.7
2015-Aug-16 15:33N 41°26' W 070°30'8 3.5
2015-Aug-16 13:15N 41°33' W 070°36'0 0.0
2015-Aug-15 22:28N 41°33' W 070°36'0 0.0
2015-Aug-15 12:24N 41°33' W 070°36'0 0.0
2015-Aug-15 00:31N 41°33' W 070°36'5 5.3
2015-Aug-14 23:33N 41°29' W 070°41'5 5.1
2015-Aug-14 22:34N 41°33' W 070°36'0 0.0
2015-Aug-14 21:06N 41°33' W 070°36'0 0.0
2015-Aug-14 20:34N 41°33' W 070°36'1 0.7
2015-Aug-14 19:30N 41°32' W 070°36'10 9.9
2015-Aug-14 18:32N 41°23' W 070°31'  
Track history (hours):
 
Tides and Currents Weather Stations Pressure Air Temp Water Temp Dewpoint Dewpoint Depression Visibility Wind Speed Wind Dir Waves Ship Positions

Pied Piper

Owner: Cape & Islands Transport Inc., Falmouth, MA. More information available from US FCC via Universal Licensing System and Coast Guard Vessel Documentation Center.

Last reported at 2015-Aug-24 16:33 UTC. Time now 2015-Sep-02 21:54 UTC.
Position N 41°26' W 070°30'.
Warning: this ship's position is 9 days out of date.

Length 24 m; draft 2 m.

Type: Passenger vessel. MMSI: 366962380.

Date/timePositionNaut miles runAvg speedWind from/ knotsBaromVisibWave heightAir tempDewpointWater temp
2015-Aug-24 16:33N 41°26' W 070°30'8 0.5
2015-Aug-24 00:06N 41°33' W 070°36'915.1
2015-Aug-23 23:31N 41°26' W 070°29'9 3.7
2015-Aug-23 21:10N 41°33' W 070°36'813.7
2015-Aug-23 20:33N 41°26' W 070°30'5 3.9
2015-Aug-23 19:13N 41°30' W 070°34'2 2.2
2015-Aug-23 18:32N 41°31' W 070°35'9 7.0
2015-Aug-23 17:17N 41°24' W 070°30'10 9.6
2015-Aug-23 16:13N 41°33' W 070°36'812.9
2015-Aug-23 15:33N 41°26' W 070°29'8 0.2
2015-Aug-21 22:09N 41°32' W 070°36'  
2015-Aug-16 20:07N 41°23' W 070°31'10 2.4
2015-Aug-16 16:07N 41°32' W 070°36'813.7
2015-Aug-16 15:33N 41°26' W 070°30'8 3.5
2015-Aug-16 13:15N 41°33' W 070°36'0 0.0
2015-Aug-15 22:28N 41°33' W 070°36'0 0.0
2015-Aug-15 12:24N 41°33' W 070°36'0 0.0
2015-Aug-15 00:31N 41°33' W 070°36'5 5.3
2015-Aug-14 23:33N 41°29' W 070°41'5 5.1
2015-Aug-14 22:34N 41°33' W 070°36'0 0.0
2015-Aug-14 21:06N 41°33' W 070°36'0 0.0
2015-Aug-14 20:34N 41°33' W 070°36'1 0.7
2015-Aug-14 19:30N 41°32' W 070°36'10 9.9
2015-Aug-14 18:32N 41°23' W 070°31'  

Dump ship's entire track history